sensor_id;sensor_type;location;lat;lon;timestamp;P1;durP1;ratioP1;P2;durP2;ratioP2
40367;SDS011;26075;43.320;21.920;2023-04-15T00:04:22;7.65;;;1.73;;
40367;SDS011;26075;43.320;21.920;2023-04-15T00:09:23;5.63;;;1.88;;
40367;SDS011;26075;43.320;21.920;2023-04-15T00:14:24;6.95;;;2.15;;
40367;SDS011;26075;43.320;21.920;2023-04-15T00:19:25;7.53;;;2.15;;
40367;SDS011;26075;43.320;21.920;2023-04-15T00:24:26;5.63;;;1.52;;
40367;SDS011;26075;43.320;21.920;2023-04-15T00:29:26;5.60;;;2.05;;
40367;SDS011;26075;43.320;21.920;2023-04-15T00:34:27;5.30;;;1.65;;
40367;SDS011;26075;43.320;21.920;2023-04-15T00:39:28;9.18;;;2.47;;
40367;SDS011;26075;43.320;21.920;2023-04-15T00:44:29;6.32;;;2.03;;
40367;SDS011;26075;43.320;21.920;2023-04-15T00:49:30;9.15;;;3.00;;
40367;SDS011;26075;43.320;21.920;2023-04-15T00:54:31;6.63;;;2.28;;
40367;SDS011;26075;43.320;21.920;2023-04-15T00:59:32;6.25;;;2.20;;
40367;SDS011;26075;43.320;21.920;2023-04-15T01:04:33;7.03;;;2.70;;
40367;SDS011;26075;43.320;21.920;2023-04-15T01:09:35;7.05;;;2.83;;
40367;SDS011;26075;43.320;21.920;2023-04-15T01:14:36;7.28;;;3.42;;
40367;SDS011;26075;43.320;21.920;2023-04-15T01:19:37;7.18;;;3.15;;
40367;SDS011;26075;43.320;21.920;2023-04-15T01:24:38;5.63;;;2.63;;
40367;SDS011;26075;43.320;21.920;2023-04-15T01:29:40;6.63;;;2.13;;
40367;SDS011;26075;43.320;21.920;2023-04-15T01:34:42;4.88;;;2.00;;
40367;SDS011;26075;43.320;21.920;2023-04-15T01:39:43;16.23;;;2.20;;
40367;SDS011;26075;43.320;21.920;2023-04-15T01:44:44;5.38;;;2.38;;
40367;SDS011;26075;43.320;21.920;2023-04-15T01:49:45;5.85;;;2.20;;
40367;SDS011;26075;43.320;21.920;2023-04-15T01:54:46;6.60;;;3.00;;
40367;SDS011;26075;43.320;21.920;2023-04-15T01:59:47;7.78;;;2.72;;
40367;SDS011;26075;43.320;21.920;2023-04-15T02:04:47;5.55;;;2.78;;
40367;SDS011;26075;43.320;21.920;2023-04-15T02:09:49;7.13;;;2.63;;
40367;SDS011;26075;43.320;21.920;2023-04-15T02:14:50;7.20;;;2.42;;
40367;SDS011;26075;43.320;21.920;2023-04-15T02:19:50;5.45;;;1.92;;
40367;SDS011;26075;43.320;21.920;2023-04-15T02:24:51;5.85;;;2.40;;
40367;SDS011;26075;43.320;21.920;2023-04-15T02:29:52;7.25;;;3.30;;
40367;SDS011;26075;43.320;21.920;2023-04-15T02:34:53;7.95;;;3.90;;
40367;SDS011;26075;43.320;21.920;2023-04-15T02:39:54;8.27;;;4.38;;
40367;SDS011;26075;43.320;21.920;2023-04-15T02:44:55;7.03;;;3.75;;
40367;SDS011;26075;43.320;21.920;2023-04-15T02:49:57;6.57;;;3.38;;
40367;SDS011;26075;43.320;21.920;2023-04-15T02:54:59;8.32;;;3.13;;
40367;SDS011;26075;43.320;21.920;2023-04-15T03:00:04;14.65;;;7.82;;
40367;SDS011;26075;43.320;21.920;2023-04-15T03:05:11;11.57;;;5.68;;
40367;SDS011;26075;43.320;21.920;2023-04-15T03:10:12;7.40;;;3.53;;
40367;SDS011;26075;43.320;21.920;2023-04-15T03:15:13;7.50;;;3.33;;
40367;SDS011;26075;43.320;21.920;2023-04-15T03:20:15;6.15;;;2.80;;
40367;SDS011;26075;43.320;21.920;2023-04-15T03:25:16;8.27;;;3.35;;
40367;SDS011;26075;43.320;21.920;2023-04-15T03:30:17;8.43;;;4.00;;
40367;SDS011;26075;43.320;21.920;2023-04-15T03:35:19;10.18;;;5.25;;
40367;SDS011;26075;43.320;21.920;2023-04-15T03:40:20;11.23;;;5.30;;
40367;SDS011;26075;43.320;21.920;2023-04-15T03:45:21;11.95;;;6.22;;
40367;SDS011;26075;43.320;21.920;2023-04-15T03:50:22;10.82;;;5.55;;
40367;SDS011;26075;43.320;21.920;2023-04-15T03:55:23;10.85;;;5.40;;
40367;SDS011;26075;43.320;21.920;2023-04-15T04:00:24;9.20;;;4.60;;
40367;SDS011;26075;43.320;21.920;2023-04-15T04:05:25;10.15;;;4.95;;
40367;SDS011;26075;43.320;21.920;2023-04-15T04:10:26;8.70;;;5.20;;
40367;SDS011;26075;43.320;21.920;2023-04-15T04:15:27;10.20;;;4.63;;
40367;SDS011;26075;43.320;21.920;2023-04-15T04:20:27;9.75;;;4.35;;
40367;SDS011;26075;43.320;21.920;2023-04-15T04:25:31;8.48;;;3.67;;
40367;SDS011;26075;43.320;21.920;2023-04-15T04:30:32;8.77;;;3.50;;
40367;SDS011;26075;43.320;21.920;2023-04-15T04:35:33;13.00;;;4.93;;
40367;SDS011;26075;43.320;21.920;2023-04-15T04:40:36;14.20;;;7.35;;
40367;SDS011;26075;43.320;21.920;2023-04-15T04:45:37;13.23;;;8.43;;
40367;SDS011;26075;43.320;21.920;2023-04-15T04:50:38;15.15;;;8.32;;
40367;SDS011;26075;43.320;21.920;2023-04-15T04:55:39;17.02;;;8.68;;
40367;SDS011;26075;43.320;21.920;2023-04-15T05:00:40;14.05;;;7.85;;
40367;SDS011;26075;43.320;21.920;2023-04-15T05:05:41;11.23;;;6.43;;
40367;SDS011;26075;43.320;21.920;2023-04-15T05:10:42;13.23;;;6.68;;
40367;SDS011;26075;43.320;21.920;2023-04-15T05:15:43;11.68;;;6.57;;
40367;SDS011;26075;43.320;21.920;2023-04-15T05:20:44;16.17;;;8.55;;
40367;SDS011;26075;43.320;21.920;2023-04-15T05:25:45;9.10;;;5.63;;
40367;SDS011;26075;43.320;21.920;2023-04-15T05:30:46;8.98;;;5.30;;
40367;SDS011;26075;43.320;21.920;2023-04-15T05:35:47;12.23;;;7.10;;
40367;SDS011;26075;43.320;21.920;2023-04-15T05:40:48;20.67;;;10.50;;
40367;SDS011;26075;43.320;21.920;2023-04-15T05:45:49;23.90;;;13.07;;
40367;SDS011;26075;43.320;21.920;2023-04-15T05:50:50;18.60;;;11.73;;
40367;SDS011;26075;43.320;21.920;2023-04-15T05:55:51;21.70;;;11.55;;
40367;SDS011;26075;43.320;21.920;2023-04-15T06:00:52;17.58;;;11.02;;
40367;SDS011;26075;43.320;21.920;2023-04-15T06:05:53;14.88;;;8.93;;
40367;SDS011;26075;43.320;21.920;2023-04-15T06:10:55;11.90;;;6.70;;
40367;SDS011;26075;43.320;21.920;2023-04-15T06:15:57;14.60;;;6.07;;
40367;SDS011;26075;43.320;21.920;2023-04-15T06:20:58;11.88;;;6.10;;
40367;SDS011;26075;43.320;21.920;2023-04-15T06:25:59;13.30;;;6.00;;
40367;SDS011;26075;43.320;21.920;2023-04-15T06:31:00;9.70;;;5.07;;
40367;SDS011;26075;43.320;21.920;2023-04-15T06:36:01;19.55;;;12.73;;
40367;SDS011;26075;43.320;21.920;2023-04-15T06:41:02;16.80;;;11.90;;
40367;SDS011;26075;43.320;21.920;2023-04-15T06:46:03;20.90;;;11.02;;
40367;SDS011;26075;43.320;21.920;2023-04-15T06:51:04;15.10;;;9.07;;
40367;SDS011;26075;43.320;21.920;2023-04-15T06:56:06;12.18;;;7.30;;
40367;SDS011;26075;43.320;21.920;2023-04-15T07:01:08;13.98;;;6.28;;
40367;SDS011;26075;43.320;21.920;2023-04-15T07:06:09;9.55;;;5.88;;
40367;SDS011;26075;43.320;21.920;2023-04-15T07:11:10;12.85;;;6.30;;
40367;SDS011;26075;43.320;21.920;2023-04-15T07:16:11;26.65;;;6.47;;
40367;SDS011;26075;43.320;21.920;2023-04-15T07:21:12;20.80;;;5.60;;
40367;SDS011;26075;43.320;21.920;2023-04-15T07:26:13;13.73;;;3.78;;
40367;SDS011;26075;43.320;21.920;2023-04-15T07:31:14;13.38;;;4.40;;
40367;SDS011;26075;43.320;21.920;2023-04-15T07:36:15;17.23;;;5.72;;
40367;SDS011;26075;43.320;21.920;2023-04-15T07:41:16;15.45;;;4.10;;
40367;SDS011;26075;43.320;21.920;2023-04-15T07:46:17;7.80;;;3.70;;
40367;SDS011;26075;43.320;21.920;2023-04-15T07:51:19;10.93;;;3.45;;
40367;SDS011;26075;43.320;21.920;2023-04-15T07:56:22;12.38;;;6.30;;
40367;SDS011;26075;43.320;21.920;2023-04-15T08:01:24;10.50;;;3.85;;
40367;SDS011;26075;43.320;21.920;2023-04-15T08:06:25;12.52;;;3.28;;
40367;SDS011;26075;43.320;21.920;2023-04-15T08:11:26;11.35;;;3.22;;
40367;SDS011;26075;43.320;21.920;2023-04-15T08:16:28;9.55;;;2.50;;
40367;SDS011;26075;43.320;21.920;2023-04-15T08:21:29;6.18;;;2.42;;
40367;SDS011;26075;43.320;21.920;2023-04-15T08:26:30;9.40;;;2.40;;
40367;SDS011;26075;43.320;21.920;2023-04-15T08:31:31;7.38;;;1.95;;
40367;SDS011;26075;43.320;21.920;2023-04-15T08:36:31;6.72;;;2.17;;
40367;SDS011;26075;43.320;21.920;2023-04-15T08:41:45;8.00;;;2.05;;
40367;SDS011;26075;43.320;21.920;2023-04-15T08:46:47;6.00;;;1.80;;
40367;SDS011;26075;43.320;21.920;2023-04-15T08:51:49;6.38;;;2.28;;
40367;SDS011;26075;43.320;21.920;2023-04-15T08:56:49;6.13;;;1.52;;
40367;SDS011;26075;43.320;21.920;2023-04-15T09:01:51;7.72;;;2.00;;
40367;SDS011;26075;43.320;21.920;2023-04-15T09:06:53;6.68;;;1.92;;
40367;SDS011;26075;43.320;21.920;2023-04-15T09:11:53;5.28;;;1.73;;
40367;SDS011;26075;43.320;21.920;2023-04-15T09:16:58;5.00;;;1.55;;
40367;SDS011;26075;43.320;21.920;2023-04-15T09:22:02;6.10;;;1.40;;
40367;SDS011;26075;43.320;21.920;2023-04-15T09:27:03;3.85;;;1.40;;
40367;SDS011;26075;43.320;21.920;2023-04-15T09:32:11;4.80;;;1.60;;
40367;SDS011;26075;43.320;21.920;2023-04-15T09:37:13;8.48;;;1.48;;
40367;SDS011;26075;43.320;21.920;2023-04-15T09:42:17;4.22;;;1.52;;
40367;SDS011;26075;43.320;21.920;2023-04-15T09:47:26;5.25;;;1.63;;
40367;SDS011;26075;43.320;21.920;2023-04-15T09:52:28;4.75;;;1.40;;
40367;SDS011;26075;43.320;21.920;2023-04-15T09:57:35;6.45;;;1.65;;
40367;SDS011;26075;43.320;21.920;2023-04-15T10:02:38;5.72;;;1.20;;
40367;SDS011;26075;43.320;21.920;2023-04-15T10:07:41;12.93;;;2.78;;
40367;SDS011;26075;43.320;21.920;2023-04-15T10:12:42;9.75;;;2.33;;
40367;SDS011;26075;43.320;21.920;2023-04-15T10:17:44;4.57;;;1.20;;
40367;SDS011;26075;43.320;21.920;2023-04-15T10:22:47;5.25;;;1.67;;
40367;SDS011;26075;43.320;21.920;2023-04-15T10:27:48;6.70;;;1.90;;
40367;SDS011;26075;43.320;21.920;2023-04-15T10:32:51;4.78;;;1.98;;
40367;SDS011;26075;43.320;21.920;2023-04-15T10:37:53;4.82;;;1.52;;
40367;SDS011;26075;43.320;21.920;2023-04-15T10:42:54;5.35;;;1.73;;
40367;SDS011;26075;43.320;21.920;2023-04-15T10:47:55;5.18;;;1.75;;
40367;SDS011;26075;43.320;21.920;2023-04-15T10:52:57;3.83;;;1.30;;
40367;SDS011;26075;43.320;21.920;2023-04-15T10:57:59;3.45;;;1.52;;
40367;SDS011;26075;43.320;21.920;2023-04-15T11:03:05;3.42;;;1.20;;
40367;SDS011;26075;43.320;21.920;2023-04-15T11:08:08;4.25;;;1.30;;
40367;SDS011;26075;43.320;21.920;2023-04-15T11:18:10;3.55;;;1.17;;
40367;SDS011;26075;43.320;21.920;2023-04-15T11:23:23;4.15;;;0.95;;
40367;SDS011;26075;43.320;21.920;2023-04-15T11:28:34;3.47;;;1.30;;
40367;SDS011;26075;43.320;21.920;2023-04-15T11:33:36;3.42;;;1.23;;
40367;SDS011;26075;43.320;21.920;2023-04-15T11:38:45;6.18;;;1.40;;
40367;SDS011;26075;43.320;21.920;2023-04-15T11:43:46;3.90;;;1.20;;
40367;SDS011;26075;43.320;21.920;2023-04-15T11:48:47;3.58;;;1.20;;
40367;SDS011;26075;43.320;21.920;2023-04-15T11:53:48;7.70;;;1.42;;
40367;SDS011;26075;43.320;21.920;2023-04-15T11:58:54;3.45;;;1.20;;
40367;SDS011;26075;43.320;21.920;2023-04-15T12:04:01;4.75;;;1.80;;
40367;SDS011;26075;43.320;21.920;2023-04-15T12:14:15;3.70;;;1.60;;
40367;SDS011;26075;43.320;21.920;2023-04-15T12:19:17;4.60;;;1.90;;
40367;SDS011;26075;43.320;21.920;2023-04-15T12:24:26;4.88;;;1.80;;
40367;SDS011;26075;43.320;21.920;2023-04-15T12:29:31;6.03;;;2.47;;
40367;SDS011;26075;43.320;21.920;2023-04-15T12:39:35;6.45;;;2.67;;
40367;SDS011;26075;43.320;21.920;2023-04-15T12:44:37;5.38;;;1.80;;
40367;SDS011;26075;43.320;21.920;2023-04-15T12:49:39;4.30;;;1.95;;
40367;SDS011;26075;43.320;21.920;2023-04-15T12:54:40;5.22;;;1.90;;
40367;SDS011;26075;43.320;21.920;2023-04-15T12:59:40;4.57;;;1.58;;
40367;SDS011;26075;43.320;21.920;2023-04-15T13:04:41;3.60;;;1.70;;
40367;SDS011;26075;43.320;21.920;2023-04-15T13:09:42;4.22;;;1.80;;
40367;SDS011;26075;43.320;21.920;2023-04-15T13:14:43;4.15;;;1.88;;
40367;SDS011;26075;43.320;21.920;2023-04-15T13:19:43;4.93;;;1.95;;
40367;SDS011;26075;43.320;21.920;2023-04-15T13:24:44;4.38;;;2.15;;
40367;SDS011;26075;43.320;21.920;2023-04-15T13:29:45;6.20;;;1.85;;
40367;SDS011;26075;43.320;21.920;2023-04-15T13:34:46;5.20;;;2.17;;
40367;SDS011;26075;43.320;21.920;2023-04-15T13:39:46;5.15;;;1.85;;
40367;SDS011;26075;43.320;21.920;2023-04-15T13:44:48;3.75;;;1.63;;
40367;SDS011;26075;43.320;21.920;2023-04-15T13:49:50;7.05;;;1.85;;
40367;SDS011;26075;43.320;21.920;2023-04-15T13:54:53;8.38;;;2.47;;
40367;SDS011;26075;43.320;21.920;2023-04-15T13:59:53;6.25;;;2.30;;
40367;SDS011;26075;43.320;21.920;2023-04-15T14:04:54;11.60;;;2.15;;
40367;SDS011;26075;43.320;21.920;2023-04-15T14:09:55;6.32;;;2.50;;
40367;SDS011;26075;43.320;21.920;2023-04-15T14:14:56;5.85;;;2.70;;
40367;SDS011;26075;43.320;21.920;2023-04-15T14:19:57;6.75;;;2.03;;
40367;SDS011;26075;43.320;21.920;2023-04-15T14:24:58;6.47;;;1.75;;
40367;SDS011;26075;43.320;21.920;2023-04-15T14:29:59;8.52;;;2.00;;
40367;SDS011;26075;43.320;21.920;2023-04-15T14:35:00;6.70;;;2.17;;
40367;SDS011;26075;43.320;21.920;2023-04-15T14:40:00;8.00;;;3.20;;
40367;SDS011;26075;43.320;21.920;2023-04-15T14:45:01;4.95;;;1.90;;
40367;SDS011;26075;43.320;21.920;2023-04-15T14:50:02;3.50;;;1.20;;
40367;SDS011;26075;43.320;21.920;2023-04-15T14:55:04;4.35;;;1.70;;
40367;SDS011;26075;43.320;21.920;2023-04-15T15:00:07;4.50;;;1.60;;
40367;SDS011;26075;43.320;21.920;2023-04-15T15:05:09;4.10;;;1.80;;
40367;SDS011;26075;43.320;21.920;2023-04-15T15:10:10;5.32;;;2.17;;
40367;SDS011;26075;43.320;21.920;2023-04-15T15:15:11;4.82;;;2.03;;
40367;SDS011;26075;43.320;21.920;2023-04-15T15:20:12;6.47;;;2.80;;
40367;SDS011;26075;43.320;21.920;2023-04-15T15:25:12;5.63;;;1.80;;
40367;SDS011;26075;43.320;21.920;2023-04-15T15:30:13;6.57;;;2.17;;
40367;SDS011;26075;43.320;21.920;2023-04-15T15:35:14;5.80;;;2.30;;
40367;SDS011;26075;43.320;21.920;2023-04-15T15:40:15;4.43;;;2.00;;
40367;SDS011;26075;43.320;21.920;2023-04-15T15:45:16;4.45;;;1.63;;
40367;SDS011;26075;43.320;21.920;2023-04-15T15:50:17;5.60;;;2.05;;
40367;SDS011;26075;43.320;21.920;2023-04-15T15:55:18;5.22;;;2.10;;
40367;SDS011;26075;43.320;21.920;2023-04-15T16:00:18;6.25;;;1.85;;
40367;SDS011;26075;43.320;21.920;2023-04-15T16:05:20;5.45;;;2.10;;
40367;SDS011;26075;43.320;21.920;2023-04-15T16:10:21;6.78;;;2.20;;
40367;SDS011;26075;43.320;21.920;2023-04-15T16:15:22;5.13;;;1.90;;
40367;SDS011;26075;43.320;21.920;2023-04-15T16:20:24;7.05;;;2.33;;
40367;SDS011;26075;43.320;21.920;2023-04-15T16:25:25;6.43;;;2.78;;
40367;SDS011;26075;43.320;21.920;2023-04-15T16:30:26;7.10;;;2.67;;
40367;SDS011;26075;43.320;21.920;2023-04-15T16:35:27;8.40;;;2.78;;
40367;SDS011;26075;43.320;21.920;2023-04-15T16:40:28;7.38;;;3.42;;
40367;SDS011;26075;43.320;21.920;2023-04-15T16:45:29;7.28;;;2.90;;
40367;SDS011;26075;43.320;21.920;2023-04-15T16:50:30;6.88;;;3.00;;
40367;SDS011;26075;43.320;21.920;2023-04-15T16:55:31;8.95;;;3.28;;
40367;SDS011;26075;43.320;21.920;2023-04-15T17:00:32;7.38;;;3.60;;
40367;SDS011;26075;43.320;21.920;2023-04-15T17:05:35;9.82;;;3.88;;
40367;SDS011;26075;43.320;21.920;2023-04-15T17:10:36;8.93;;;4.03;;
40367;SDS011;26075;43.320;21.920;2023-04-15T17:15:37;8.82;;;4.50;;
40367;SDS011;26075;43.320;21.920;2023-04-15T17:20:39;12.20;;;5.20;;
40367;SDS011;26075;43.320;21.920;2023-04-15T17:25:40;12.20;;;5.75;;
40367;SDS011;26075;43.320;21.920;2023-04-15T17:30:41;11.13;;;6.03;;
40367;SDS011;26075;43.320;21.920;2023-04-15T17:35:41;12.93;;;7.90;;
40367;SDS011;26075;43.320;21.920;2023-04-15T17:40:42;18.38;;;9.98;;
40367;SDS011;26075;43.320;21.920;2023-04-15T17:45:43;16.75;;;11.15;;
40367;SDS011;26075;43.320;21.920;2023-04-15T17:50:45;16.90;;;11.35;;
40367;SDS011;26075;43.320;21.920;2023-04-15T17:55:46;19.08;;;11.52;;
40367;SDS011;26075;43.320;21.920;2023-04-15T18:00:46;18.67;;;11.75;;
40367;SDS011;26075;43.320;21.920;2023-04-15T18:05:47;17.40;;;11.05;;
40367;SDS011;26075;43.320;21.920;2023-04-15T18:10:48;15.68;;;10.20;;
40367;SDS011;26075;43.320;21.920;2023-04-15T18:15:49;18.08;;;9.45;;
40367;SDS011;26075;43.320;21.920;2023-04-15T18:20:50;14.82;;;9.32;;
40367;SDS011;26075;43.320;21.920;2023-04-15T18:25:51;17.92;;;10.43;;
40367;SDS011;26075;43.320;21.920;2023-04-15T18:30:52;15.73;;;10.77;;
40367;SDS011;26075;43.320;21.920;2023-04-15T18:35:53;21.52;;;13.25;;
40367;SDS011;26075;43.320;21.920;2023-04-15T18:40:54;26.10;;;16.73;;
40367;SDS011;26075;43.320;21.920;2023-04-15T18:45:55;24.13;;;17.05;;
40367;SDS011;26075;43.320;21.920;2023-04-15T18:50:56;32.55;;;19.77;;
40367;SDS011;26075;43.320;21.920;2023-04-15T18:55:57;32.40;;;21.80;;
40367;SDS011;26075;43.320;21.920;2023-04-15T19:01:00;37.03;;;23.05;;
40367;SDS011;26075;43.320;21.920;2023-04-15T19:06:02;36.78;;;23.05;;
40367;SDS011;26075;43.320;21.920;2023-04-15T19:11:03;29.30;;;20.60;;
40367;SDS011;26075;43.320;21.920;2023-04-15T19:16:03;25.58;;;18.30;;
40367;SDS011;26075;43.320;21.920;2023-04-15T19:21:05;30.17;;;18.23;;
40367;SDS011;26075;43.320;21.920;2023-04-15T19:26:05;28.60;;;17.92;;
40367;SDS011;26075;43.320;21.920;2023-04-15T19:31:07;25.73;;;17.67;;
40367;SDS011;26075;43.320;21.920;2023-04-15T19:36:08;24.25;;;15.63;;
40367;SDS011;26075;43.320;21.920;2023-04-15T19:41:09;24.42;;;16.02;;
40367;SDS011;26075;43.320;21.920;2023-04-15T19:46:10;21.95;;;14.15;;
40367;SDS011;26075;43.320;21.920;2023-04-15T19:51:12;20.58;;;12.50;;
40367;SDS011;26075;43.320;21.920;2023-04-15T19:56:12;20.17;;;11.77;;
40367;SDS011;26075;43.320;21.920;2023-04-15T20:01:13;19.70;;;12.40;;
40367;SDS011;26075;43.320;21.920;2023-04-15T20:06:14;22.48;;;13.80;;
40367;SDS011;26075;43.320;21.920;2023-04-15T20:11:15;24.80;;;16.15;;
40367;SDS011;26075;43.320;21.920;2023-04-15T20:16:15;25.20;;;17.13;;
40367;SDS011;26075;43.320;21.920;2023-04-15T20:21:16;26.33;;;18.20;;
40367;SDS011;26075;43.320;21.920;2023-04-15T20:26:17;30.15;;;19.65;;
40367;SDS011;26075;43.320;21.920;2023-04-15T20:31:19;30.80;;;20.00;;
40367;SDS011;26075;43.320;21.920;2023-04-15T20:36:21;31.05;;;21.05;;
40367;SDS011;26075;43.320;21.920;2023-04-15T20:41:21;33.60;;;20.83;;
40367;SDS011;26075;43.320;21.920;2023-04-15T20:46:22;28.63;;;20.55;;
40367;SDS011;26075;43.320;21.920;2023-04-15T20:51:23;29.35;;;20.77;;
40367;SDS011;26075;43.320;21.920;2023-04-15T20:56:24;28.88;;;19.35;;
40367;SDS011;26075;43.320;21.920;2023-04-15T21:01:25;28.98;;;19.50;;
40367;SDS011;26075;43.320;21.920;2023-04-15T21:06:25;29.45;;;20.40;;
40367;SDS011;26075;43.320;21.920;2023-04-15T21:11:26;35.88;;;20.10;;
40367;SDS011;26075;43.320;21.920;2023-04-15T21:16:27;25.00;;;17.92;;
40367;SDS011;26075;43.320;21.920;2023-04-15T21:21:28;23.05;;;16.75;;
40367;SDS011;26075;43.320;21.920;2023-04-15T21:26:28;24.02;;;15.60;;
40367;SDS011;26075;43.320;21.920;2023-04-15T21:31:29;25.38;;;16.05;;
40367;SDS011;26075;43.320;21.920;2023-04-15T21:36:30;21.42;;;13.90;;
40367;SDS011;26075;43.320;21.920;2023-04-15T21:41:31;20.92;;;13.48;;
40367;SDS011;26075;43.320;21.920;2023-04-15T21:46:31;22.58;;;14.18;;
40367;SDS011;26075;43.320;21.920;2023-04-15T21:51:32;22.90;;;13.75;;
40367;SDS011;26075;43.320;21.920;2023-04-15T21:56:33;19.48;;;12.05;;
40367;SDS011;26075;43.320;21.920;2023-04-15T22:01:34;16.95;;;11.05;;
40367;SDS011;26075;43.320;21.920;2023-04-15T22:06:35;17.55;;;10.77;;
40367;SDS011;26075;43.320;21.920;2023-04-15T22:11:36;17.05;;;11.45;;
40367;SDS011;26075;43.320;21.920;2023-04-15T22:16:36;19.33;;;10.32;;
40367;SDS011;26075;43.320;21.920;2023-04-15T22:21:37;15.60;;;10.05;;
40367;SDS011;26075;43.320;21.920;2023-04-15T22:26:38;16.33;;;10.32;;
40367;SDS011;26075;43.320;21.920;2023-04-15T22:31:38;17.77;;;11.32;;
40367;SDS011;26075;43.320;21.920;2023-04-15T22:36:39;18.00;;;11.95;;
40367;SDS011;26075;43.320;21.920;2023-04-15T22:41:40;16.63;;;11.23;;
40367;SDS011;26075;43.320;21.920;2023-04-15T22:46:41;21.65;;;11.07;;
40367;SDS011;26075;43.320;21.920;2023-04-15T22:51:42;17.15;;;10.30;;
40367;SDS011;26075;43.320;21.920;2023-04-15T22:56:43;13.65;;;9.23;;
40367;SDS011;26075;43.320;21.920;2023-04-15T23:01:43;19.70;;;10.45;;
40367;SDS011;26075;43.320;21.920;2023-04-15T23:06:44;15.30;;;8.68;;
40367;SDS011;26075;43.320;21.920;2023-04-15T23:11:46;15.02;;;9.85;;
40367;SDS011;26075;43.320;21.920;2023-04-15T23:16:46;15.00;;;9.13;;
40367;SDS011;26075;43.320;21.920;2023-04-15T23:21:47;15.07;;;9.48;;
40367;SDS011;26075;43.320;21.920;2023-04-15T23:26:48;14.48;;;8.80;;
40367;SDS011;26075;43.320;21.920;2023-04-15T23:31:49;13.50;;;9.27;;
40367;SDS011;26075;43.320;21.920;2023-04-15T23:36:50;17.40;;;9.55;;
40367;SDS011;26075;43.320;21.920;2023-04-15T23:41:51;18.33;;;9.27;;
40367;SDS011;26075;43.320;21.920;2023-04-15T23:46:52;14.02;;;8.77;;
40367;SDS011;26075;43.320;21.920;2023-04-15T23:51:53;15.60;;;9.07;;
40367;SDS011;26075;43.320;21.920;2023-04-15T23:56:53;14.38;;;9.55;;
